Saturday, August 18, 2018, 3:48 PM EDT
Back to Local

KWRI, Mcguire Air Force Base

Location: Trenton, NJ, United States Lat: 40.017
Local Time: 3:48 PM EDT (19:48 GMT) Lon: -74.6
Time Zone: US/Eastern Elev: 134 ft

Show me the last for .
Show Decoded

2018-08-18 14:56 METAR KWRI 181856Z AUTO 27009KT 10SM BKN040 31/22 A2977 RMK AO2 SLP079 T03110224
                 $ =
2018-08-18 13:56 METAR KWRI 181756Z 25009KT 10SM FEW039 FEW150 SCT200 31/22 A2979 RMK AO2A SLP086
                 T03080224 10309 20231 57019 $ =
2018-08-18 12:56 METAR KWRI 181656Z 26010KT 10SM FEW032 BKN200 30/23 A2981 RMK AO2A SLP093
                 T03030227 $ =
2018-08-18 11:56 METAR KWRI 181556Z 26008KT 10SM FEW024 29/23 A2983 RMK AO2A SLP100 T02940231 $ =
2018-08-18 11:15 METAR KWRI 181515Z COR 27007KT 10SM FEW180 28/23 A2984 RMK AO2A SLP103 $ COR
                 1523 =
2018-08-18 11:12 METAR KWRI 181512Z COR 27007KT 10SM SCT180 28/23 A2984 RMK AO2A SLP103 $ COR
                 1525 =
2018-08-18 11:09 METAR KWRI 181509Z COR 24008KT 10SM SCT180 28/23 A2984 RMK AO2A SLP103 $ COR
                 1524 =
2018-08-18 10:56 METAR KWRI 181456Z AUTO 25006KT 10SM FEW014 BKN180 BKN200 27/23 A2984 RMK AO2
                 SLP103 T02680230 58005 $ =
2018-08-18 09:56 METAR KWRI 181356Z AUTO 25007KT 10SM CLR 25/25 A2985 RMK AO2 SLP107 T02460246 $
                 =
2018-08-18 08:56 METAR KWRI 181256Z AUTO 27005KT 10SM CLR 24/24 A2986 RMK AO2 SLP110 T02360236 $
                 =
2018-08-18 07:56 METAR KWRI 181156Z AUTO 24005KT 10SM CLR 23/23 A2986 RMK AO2 SLP110 60016 70016
                 T02310231 10250 20224 57007 TSNO $ =
2018-08-18 06:56 METAR KWRI 181056Z AUTO 24004KT 10SM FEW100 23/23 A2987 RMK AO2 SLP114 T02260226
                 $ =
2018-08-18 05:56 METAR KWRI 180956Z AUTO 00000KT 10SM SCT140 23/22 A2987 RMK AO2 SLP113 T02250223
                 $ =
2018-08-18 04:56 METAR KWRI 180856Z 21003KT 10SM FEW004 FEW170 23/23 A2988 RMK AO2A RAB0756E07
                 SLP117 P0000 60016 T02270225 57008 $ =
2018-08-18 04:38 METAR KWRI 180838Z 00000KT 10SM FEW005 FEW150 23/23 A2989 RMK AO2A RAB0756E07
                 SLP120 $ =
2018-08-18 04:33 METAR KWRI 180833Z 20003KT 10SM FEW005 23/23 A2988 RMK AO2A LTG DSNT SE
                 RAB0756E07 SLP117 $ =
2018-08-18 03:56 METAR KWRI 180756Z 17007KT 10SM FEW015 23/23 A2989 RMK AO2A LTG DSNT SE SLP120
                 P0009 T02330226 $ =
2018-08-18 03:39 METAR KWRI 180739Z 22007KT 10SM FEW015 24/23 A2989 RMK AO2A LTG DSNT S-SE SLP120
                 $ =
2018-08-18 03:17 METAR KWRI 180717Z 24006KT 8SM -RA FEW021 24/23 A2989 RMK AO2A LTG DSNT E-S
                 SLP120 $ =
2018-08-18 03:04 METAR KWRI 180704Z 26005KT 9SM VCTS RA SCT037 24/24 A2989 RMK AO2A LTG DSNT E-SE
                 AND SW SLP120 $ =
2018-08-18 02:56 METAR KWRI 180656Z 28006KT 10SM VCTS -RA SCT035 25/24 A2990 RMK AO2A LTG DSNT
                 E-S RAB0559 TSB09E51 SLP123 P0007 T02450236 $ =
2018-08-18 02:51 METAR KWRI 180651Z 29006KT 10SM VCTS -RA FEW010 BKN032 25/24 A2990 RMK AO2A LTG
                 DSNT E-S RAB0559 TSB09E51 SLP123 $ =
2018-08-18 02:29 METAR KWRI 180629Z 27009KT 5SM TSRA BR FEW010 FEW015 FEW021 BKN032 25/24 A2991
                 RMK AO2A LTG DSNT E-S RAB0559 TSB09 SLP127 $ =
2018-08-18 02:27 METAR KWRI 180627Z 27008KT 5SM TSRA FEW015 FEW021 BKN032 25/24 A2991 RMK AO2A
                 LTG DSNT SE-S RAB0559 TSB09E27 SLP127 $ =
2018-08-18 02:14 METAR KWRI 180614Z 25006KT 9SM -TSRA FEW009 FEW042 25/24 A2990 RMK AO2A LTG DSNT
                 S AND SW RAB0559 TSB09 SLP123 $ =
2018-08-18 02:09 METAR KWRI 180609Z 25005KT 10SM -TSRA FEW043 25/24 A2990 RMK LTG DSNT SW RAB0559
                 SLP123 $ =
2018-08-18 01:59 METAR KWRI 180559Z 23003KT 10SM -RA FEW041 25/24 A2990 RMK AO2A LTG DSNT SW
                 RAB59 SLP123 $ =
2018-08-18 01:56 METAR KWRI 180556Z 23003KT 10SM CLR 25/24 A2990 RMK AO2A LTG DSNT SW SLP123
                 T02470235 10278 20247 56002 $ =
2018-08-18 01:43 METAR KWRI 180543Z 22005KT 10SM FEW160 25/24 A2990 RMK AO2A LTG DSNT SW SLP123 $
                 =
2018-08-18 00:56 METAR KWRI 180456Z AUTO 21005KT 10SM BKN170 25/23 A2991 RMK AO2 SLP127 T02500234
                 403390215 $ =
2018-08-17 23:56 METAR KWRI 180356Z AUTO 23007KT 10SM SCT180 26/23 A2991 RMK AO2 SLP127 =
2018-08-17 22:56 METAR KWRI 180256Z AUTO 20007KT 10SM FEW190 26/23 A2991 RMK AO2 SLP127 T02610229
                 57006 $ =
2018-08-17 21:56 METAR KWRI 180156Z AUTO 20008KT 10SM CLR 27/23 A2992 RMK AO2 LTG DSNT N SLP130
                 T02650227 $ =
2018-08-17 20:56 METAR KWRI 180056Z AUTO 20008KT 10SM CLR 27/23 A2993 RMK AO2 SLP134 T02710229 $
                 =
2018-08-17 19:56 METAR KWRI 172356Z AUTO 20008KT 10SM CLR 28/23 A2993 RMK AO2 SLP134 T02790232
                 10339 20279 53000 TSNO $ =
2018-08-17 18:56 METAR KWRI 172256Z AUTO 20011KT 10SM CLR 29/24 A2992 RMK AO2 SLP130 T02940238 $
                 =
2018-08-17 17:56 METAR KWRI 172156Z AUTO 19008KT 10SM FEW045 32/23 A2992 RMK AO2 SLP130 T03190231
                 $ =
2018-08-17 16:56 METAR KWRI 172056Z AUTO 21012KT 10SM CLR 33/22 A2993 RMK AO2 SLP134 T03250222
                 57020 $ =
2018-08-17 15:56 METAR KWRI 171956Z AUTO 20010KT 10SM SCT050 34/22 A2994 RMK AO2 SLP137 T03370218
                 $ =

Support USWX by starting your Amazon purchase here.